^^
Datos históricos de la estación: Murcia-Puente Tocinos
Diario Informe para Mayo 11, 2019 Unidades:  Métrico    Inglés   Ambas
Diario Semanal Mensual Anual Configurable
  Máximo: Mínimo: Media:
Temperatura: 31.6 °C 20.8 °C 24.6 °C
Punto de rocio: 16.1 °C 9.8 °C 13.1 °C
Humedad: 66% 26% 50%
Velocidad viento: 27.4km/h 0.0km/h 10.5km/h
Racha viento: 42.6km/h - -
Viento- - South
Presión: 1020.1 hPa 1013.2 hPa -
Precipitación: 0.0 mm    
Historical Graphs
 
 
Tabla de datos para Mayo 11, 2019
Hora Temperatura Punto de rocio Presión Viento Velocidad viento Racha viento Humedad Intensidad lluvia(por hora) Nubes
00:00 24.6 °C 13.8 °C 1013.3 hPa SSW 4.8 km/h 11.3 km/h 51% 0.0 mm CLR
00:05 24.7 °C 13.6 °C 1013.3 hPa WSW 5.0 km/h 7.4 km/h 50% 0.0 mm CLR
00:10 24.7 °C 13.3 °C 1013.3 hPa SSW 6.9 km/h 9.3 km/h 49% 0.0 mm CLR
00:15 24.7 °C 13.3 °C 1013.3 hPa SSW 6.9 km/h 9.5 km/h 49% 0.0 mm CLR
00:20 24.7 °C 13.3 °C 1013.3 hPa South 6.4 km/h 7.4 km/h 49% 0.0 mm CLR
00:25 24.7 °C 13.6 °C 1013.3 hPa ENE 6.4 km/h 5.6 km/h 50% 0.0 mm CLR
00:30 24.6 °C 13.8 °C 1013.3 hPa ENE 2.9 km/h 3.7 km/h 51% 0.0 mm CLR
00:35 24.4 °C 13.9 °C 1013.2 hPa ENE 2.9 km/h 3.9 km/h 52% 0.0 mm CLR
00:40 24.2 °C 14.0 °C 1013.2 hPa ENE 2.9 km/h 5.6 km/h 53% 0.0 mm CLR
00:45 23.9 °C 14.3 °C 1013.2 hPa NE 2.9 km/h 7.4 km/h 55% 0.0 mm CLR
00:50 23.7 °C 14.4 °C 1013.4 hPa NE 3.2 km/h   56% 0.0 mm CLR
00:55 23.4 °C 14.1 °C 1013.4 hPa ENE 3.2 km/h 7.4 km/h 56% 0.0 mm CLR
01:00 23.2 °C 14.2 °C 1013.4 hPa ENE 3.2 km/h 8.0 km/h 57% 0.0 mm CLR
01:05 23.1 °C 14.1 °C 1013.3 hPa ENE 3.2 km/h   57% 0.0 mm CLR
01:10 23.0 °C 14.0 °C 1013.3 hPa Calm   3.7 km/h 57% 0.0 mm CLR
01:15 23.1 °C 14.1 °C 1013.3 hPa Calm     57% 0.0 mm CLR
01:20 23.1 °C 14.4 °C 1013.4 hPa Calm     58% 0.0 mm CLR
01:25 23.1 °C 14.1 °C 1013.4 hPa Calm     57% 0.0 mm CLR
01:30 23.1 °C 14.1 °C 1013.4 hPa Calm     57% 0.0 mm CLR
01:35 23.0 °C 14.3 °C 1013.5 hPa Calm     58% 0.0 mm CLR
01:40 23.0 °C 14.0 °C 1013.5 hPa Calm   5.6 km/h 57% 0.0 mm CLR
01:45 22.9 °C 14.2 °C 1013.5 hPa Calm   3.7 km/h 58% 0.0 mm CLR
01:50 22.9 °C 13.9 °C 1013.5 hPa South 2.3 km/h 7.4 km/h 57% 0.0 mm CLR
01:55 22.8 °C 13.8 °C 1013.5 hPa SE 2.3 km/h 9.3 km/h 57% 0.0 mm CLR
02:00 22.7 °C 14.0 °C 1013.5 hPa SSE 4.8 km/h 12.9 km/h 58% 0.0 mm CLR
02:05 22.6 °C 13.9 °C 1013.5 hPa South 5.8 km/h 11.1 km/h 58% 0.0 mm CLR
02:10 22.4 °C 13.7 °C 1013.5 hPa SSW 7.6 km/h 11.1 km/h 58% 0.0 mm CLR
02:15 22.4 °C 13.7 °C 1013.5 hPa SSW 7.6 km/h 11.1 km/h 58% 0.0 mm CLR
02:20 22.4 °C 13.7 °C 1013.5 hPa SSW 8.4 km/h 9.3 km/h 58% 0.0 mm CLR
02:25 22.4 °C 13.7 °C 1013.5 hPa SSW 8.4 km/h 11.1 km/h 58% 0.0 mm CLR
02:30 22.5 °C 13.8 °C 1013.5 hPa SSW 8.4 km/h 9.5 km/h 58% 0.0 mm CLR
02:35 22.5 °C 13.8 °C 1013.4 hPa SSW 8.4 km/h 9.3 km/h 58% 0.0 mm CLR
02:40 22.6 °C 13.9 °C 1013.4 hPa SW 6.4 km/h 9.3 km/h 58% 0.0 mm CLR
02:45 22.6 °C 13.7 °C 1013.4 hPa SW 6.4 km/h 11.1 km/h 57% 0.0 mm CLR
02:50 22.6 °C 13.9 °C 1013.4 hPa SSW 6.9 km/h 11.1 km/h 58% 0.0 mm CLR
02:55 22.6 °C 13.9 °C 1013.4 hPa SSW 6.9 km/h 9.3 km/h 58% 0.0 mm CLR
03:00 22.6 °C 13.9 °C 1013.4 hPa SSW 8.0 km/h 12.9 km/h 58% 0.0 mm CLR
03:05 22.6 °C 13.9 °C 1013.4 hPa South 7.6 km/h 7.4 km/h 58% 0.0 mm CLR
03:10 22.6 °C 13.9 °C 1013.4 hPa SSW 6.4 km/h 11.1 km/h 58% 0.0 mm CLR
03:15 22.6 °C 13.9 °C 1013.4 hPa West 6.4 km/h 13.0 km/h 58% 0.0 mm CLR
03:20 22.6 °C 13.9 °C 1013.4 hPa SSW 8.4 km/h 9.3 km/h 58% 0.0 mm CLR
03:25 22.6 °C 13.9 °C 1013.4 hPa SW 8.4 km/h 11.1 km/h 58% 0.0 mm CLR
03:30 22.6 °C 13.9 °C 1013.4 hPa SW 7.6 km/h 9.3 km/h 58% 0.0 mm CLR
03:35 22.6 °C 13.9 °C 1013.5 hPa West 7.6 km/h 11.1 km/h 58% 0.0 mm CLR
03:40 22.5 °C 14.1 °C 1013.5 hPa West 7.6 km/h 9.3 km/h 59% 0.0 mm CLR
03:45 22.4 °C 14.0 °C 1013.5 hPa West 7.6 km/h 7.4 km/h 59% 0.0 mm CLR
03:50 22.4 °C 14.0 °C 1013.5 hPa WSW 5.0 km/h 5.8 km/h 59% 0.0 mm CLR
03:55 22.4 °C 14.0 °C 1013.5 hPa WSW 5.0 km/h 5.6 km/h 59% 0.0 mm CLR
04:00 22.3 °C 13.9 °C 1013.5 hPa WSW 3.2 km/h 6.4 km/h 59% 0.0 mm CLR
04:05 22.3 °C 14.2 °C 1013.5 hPa WSW 3.2 km/h   60% 0.0 mm CLR
04:10 22.2 °C 14.1 °C 1013.5 hPa Calm     60% 0.0 mm CLR
04:15 22.1 °C 13.9 °C 1013.5 hPa Calm   3.7 km/h 60% 0.0 mm CLR
04:20 21.9 °C 14.1 °C 1013.7 hPa Calm   5.6 km/h 61% 0.0 mm CLR
04:25 21.7 °C 14.1 °C 1013.7 hPa Calm   5.6 km/h 62% 0.0 mm CLR
04:30 21.5 °C 14.2 °C 1013.7 hPa NNW 2.3 km/h 1.9 km/h 63% 0.0 mm CLR
04:35 21.2 °C 14.1 °C 1013.7 hPa NNW 2.3 km/h   64% 0.0 mm CLR
04:40 21.1 °C 14.0 °C 1013.7 hPa Calm     64% 0.0 mm CLR
04:45 21.0 °C 14.2 °C 1013.7 hPa Calm     65% 0.0 mm CLR
04:50 20.9 °C 14.1 °C 1013.7 hPa Calm   3.7 km/h 65% 0.0 mm CLR
04:55 20.9 °C 14.1 °C 1013.7 hPa Calm   3.9 km/h 65% 0.0 mm CLR
05:00 20.8 °C 14.0 °C 1013.7 hPa NW 1.6 km/h 8.0 km/h 65% 0.0 mm CLR
05:05 20.8 °C 14.2 °C 1013.8 hPa NW 2.3 km/h 5.6 km/h 66% 0.0 mm CLR
05:10 20.8 °C 13.7 °C 1013.8 hPa SSE 4.7 km/h 10.3 km/h 64% 0.0 mm CLR
05:15 21.2 °C 13.6 °C 1013.8 hPa SW 4.7 km/h 18.5 km/h 62% 0.0 mm CLR
05:20 21.8 °C 13.4 °C 1013.6 hPa SW 10.0 km/h 16.7 km/h 59% 0.0 mm CLR
05:25 22.1 °C 13.4 °C 1013.6 hPa SSW 10.0 km/h 13.0 km/h 58% 0.0 mm CLR
05:30 22.2 °C 13.3 °C 1013.6 hPa SSW 11.1 km/h 13.0 km/h 57% 0.0 mm CLR
05:35 22.2 °C 13.3 °C 1013.6 hPa South 11.1 km/h 13.0 km/h 57% 0.0 mm CLR
05:40 22.2 °C 13.3 °C 1013.6 hPa SW 9.5 km/h 10.3 km/h 57% 0.0 mm CLR
05:45 22.2 °C 13.3 °C 1013.6 hPa SW 9.5 km/h 11.1 km/h 57% 0.0 mm CLR
05:50 22.2 °C 13.0 °C 1013.7 hPa SW 6.4 km/h 7.4 km/h 56% 0.0 mm CLR
05:55 22.3 °C 13.1 °C 1013.7 hPa SW 6.4 km/h 13.0 km/h 56% 0.0 mm CLR
06:00 22.3 °C 13.1 °C 1013.7 hPa SW 8.0 km/h 12.9 km/h 56% 0.0 mm CLR
06:05 22.3 °C 13.1 °C 1013.9 hPa SSW 7.6 km/h 11.1 km/h 56% 0.0 mm CLR
06:10 22.4 °C 12.9 °C 1013.9 hPa SW 8.4 km/h 11.1 km/h 55% 0.0 mm CLR
06:15 22.4 °C 12.9 °C 1013.9 hPa SSW 8.4 km/h 14.8 km/h 55% 0.0 mm CLR
06:20 22.4 °C 12.6 °C 1014.1 hPa SW 8.7 km/h 11.1 km/h 54% 0.0 mm CLR
06:25 22.6 °C 12.8 °C 1014.1 hPa SW 8.7 km/h 13.0 km/h 54% 0.0 mm CLR
06:30 22.6 °C 12.6 °C 1014.1 hPa SSW 9.5 km/h 11.1 km/h 53% 0.0 mm CLR
06:35 22.7 °C 12.6 °C 1014.3 hPa SSW 9.5 km/h 14.8 km/h 53% 0.0 mm CLR
06:40 22.7 °C 12.6 °C 1014.3 hPa SSW 9.5 km/h 11.1 km/h 53% 0.0 mm CLR
06:45 22.8 °C 12.4 °C 1014.3 hPa SSW 9.5 km/h 11.1 km/h 52% 0.0 mm CLR
06:50 22.8 °C 12.4 °C 1014.5 hPa SW 8.4 km/h 10.0 km/h 52% 0.0 mm CLR
06:55 22.9 °C 12.5 °C 1014.5 hPa WSW 8.4 km/h 7.4 km/h 52% 0.0 mm CLR
07:00 22.8 °C 12.4 °C 1014.5 hPa SW 4.8 km/h 11.3 km/h 52% 0.0 mm CLR
07:05 22.8 °C 12.4 °C 1014.7 hPa WSW 5.0 km/h 9.3 km/h 52% 0.0 mm CLR
07:10 22.7 °C 12.6 °C 1014.7 hPa SW 6.9 km/h 14.8 km/h 53% 0.0 mm CLR
07:15 22.7 °C 12.6 °C 1014.7 hPa SW 6.9 km/h 14.8 km/h 53% 0.0 mm CLR
07:20 22.7 °C 12.3 °C 1014.9 hPa SW 10.3 km/h 16.7 km/h 52% 0.0 mm CLR
07:25 22.6 °C 12.2 °C 1014.9 hPa WSW 10.3 km/h 16.1 km/h 52% 0.0 mm CLR
07:30 22.6 °C 12.2 °C 1014.9 hPa SW 11.1 km/h 16.7 km/h 52% 0.0 mm CLR
07:35 22.6 °C 12.2 °C 1015.0 hPa SSW 11.1 km/h 13.0 km/h 52% 0.0 mm CLR
07:40 22.6 °C 12.2 °C 1015.0 hPa SW 10.0 km/h 13.0 km/h 52% 0.0 mm CLR
07:45 22.6 °C 12.6 °C 1015.0 hPa SSW 10.0 km/h 16.7 km/h 53% 0.0 mm CLR
07:50 22.6 °C 12.6 °C 1015.2 hPa SSW 10.3 km/h 14.8 km/h 53% 0.0 mm CLR
07:55 22.6 °C 12.6 °C 1015.2 hPa SW 10.3 km/h 11.1 km/h 53% 0.0 mm CLR
08:00 22.5 °C 12.4 °C 1015.2 hPa SW 11.3 km/h 14.5 km/h 53% 0.0 mm CLR
08:05 22.7 °C 12.6 °C 1015.4 hPa WSW 10.3 km/h 13.0 km/h 53% 0.0 mm CLR
08:10 22.7 °C 12.6 °C 1015.4 hPa SSW 11.1 km/h 13.0 km/h 53% 0.0 mm CLR
08:15 22.8 °C 12.7 °C 1015.4 hPa SSW 11.1 km/h 11.1 km/h 53% 0.0 mm CLR
08:20 22.9 °C 12.5 °C 1015.5 hPa SSW 8.7 km/h 14.8 km/h 52% 0.0 mm CLR
08:25 23.1 °C 12.4 °C 1015.5 hPa SW 8.7 km/h 14.8 km/h 51% 0.0 mm CLR
08:30 23.1 °C 12.7 °C 1015.5 hPa SW 10.3 km/h 14.8 km/h 52% 0.0 mm CLR
08:35 23.3 °C 12.6 °C 1015.6 hPa SW 10.3 km/h 13.0 km/h 51% 0.0 mm CLR
08:40 23.3 °C 12.6 °C 1015.6 hPa WSW 10.3 km/h 14.8 km/h 51% 0.0 mm CLR
08:45 23.5 °C 12.8 °C 1015.6 hPa WSW 10.3 km/h 13.0 km/h 51% 0.0 mm CLR
08:50 23.7 °C 12.7 °C 1015.6 hPa SW 9.5 km/h 14.8 km/h 50% 0.0 mm CLR
08:55 23.8 °C 12.7 °C 1015.6 hPa SW 9.5 km/h 16.7 km/h 50% 0.0 mm CLR
09:00 23.8 °C 12.8 °C 1015.6 hPa SW 11.3 km/h 19.3 km/h 50% 0.0 mm CLR
09:05 23.9 °C 12.6 °C 1015.8 hPa SW 10.3 km/h 18.5 km/h 49% 0.0 mm CLR
09:10 24.1 °C 12.7 °C 1015.8 hPa WNW 11.9 km/h 18.5 km/h 49% 0.0 mm CLR
09:15 24.0 °C 12.6 °C 1015.8 hPa WSW 11.9 km/h 18.5 km/h 49% 0.0 mm CLR
09:20 24.1 °C 12.7 °C 1015.8 hPa WSW 14.0 km/h 22.2 km/h 49% 0.0 mm CLR
09:25 24.2 °C 13.1 °C 1015.8 hPa WSW 14.0 km/h 18.0 km/h 50% 0.0 mm CLR
09:30 24.2 °C 12.8 °C 1015.8 hPa WNW 13.7 km/h 25.9 km/h 49% 0.0 mm CLR
09:35 24.3 °C 12.9 °C 1015.9 hPa West 13.7 km/h 18.0 km/h 49% 0.0 mm CLR
09:40 24.4 °C 13.0 °C 1015.9 hPa West 13.7 km/h 22.2 km/h 49% 0.0 mm CLR
09:45 24.4 °C 13.0 °C 1015.9 hPa WNW 13.7 km/h 22.2 km/h 49% 0.0 mm CLR
09:50 24.6 °C 13.2 °C 1015.9 hPa WSW 14.8 km/h 23.3 km/h 49% 0.0 mm CLR
09:55 24.7 °C 12.9 °C 1015.9 hPa West 14.8 km/h 22.2 km/h 48% 0.0 mm CLR
10:00 24.9 °C 13.1 °C 1015.9 hPa WSW 14.5 km/h 22.5 km/h 48% 0.0 mm CLR
10:05 25.2 °C 13.1 °C 1016.0 hPa SW 14.8 km/h 14.8 km/h 47% 0.0 mm CLR
10:10 25.3 °C 12.8 °C 1016.0 hPa WNW 11.9 km/h 16.1 km/h 46% 0.0 mm CLR
10:15 25.3 °C 12.8 °C 1016.0 hPa SW 11.9 km/h 22.2 km/h 46% 0.0 mm CLR
10:20 25.3 °C 12.5 °C 1015.9 hPa WSW 14.0 km/h 25.9 km/h 45% 0.0 mm CLR
10:25 25.4 °C 12.9 °C 1015.9 hPa SW 14.0 km/h 15.6 km/h 46% 0.0 mm CLR
10:30 25.6 °C 12.8 °C 1015.9 hPa WSW 14.0 km/h 16.7 km/h 45% 0.0 mm CLR
10:35 25.7 °C 12.9 °C 1016.0 hPa West 14.0 km/h 24.1 km/h 45% 0.0 mm CLR
10:40 25.8 °C 12.6 °C 1016.0 hPa WNW 14.0 km/h 24.1 km/h 44% 0.0 mm CLR
10:45 26.1 °C 12.6 °C 1016.0 hPa WSW 14.0 km/h 22.2 km/h 43% 0.0 mm CLR
10:50 26.2 °C 12.6 °C 1016.0 hPa West 13.0 km/h 22.2 km/h 43% 0.0 mm CLR
10:55 26.4 °C 12.8 °C 1016.0 hPa WNW 13.0 km/h 18.5 km/h 43% 0.0 mm CLR
11:00 26.4 °C 12.4 °C 1016.0 hPa West 12.9 km/h 24.1 km/h 42% 0.0 mm CLR
11:05 26.4 °C 12.4 °C 1016.0 hPa WNW 12.2 km/h 27.8 km/h 42% 0.0 mm CLR
11:10 26.4 °C 12.4 °C 1016.0 hPa WNW 16.1 km/h 16.7 km/h 42% 0.0 mm CLR
11:15 26.8 °C 12.4 °C 1016.0 hPa WSW 16.1 km/h 25.9 km/h 41% 0.0 mm CLR
11:20 26.9 °C 12.6 °C 1015.9 hPa WNW 14.0 km/h 22.2 km/h 41% 0.0 mm CLR
11:25 27.0 °C 12.6 °C 1015.9 hPa SW 14.0 km/h 19.8 km/h 41% 0.0 mm CLR
11:30 27.1 °C 12.7 °C 1015.9 hPa NW 13.7 km/h 20.4 km/h 41% 0.0 mm CLR
11:35 27.2 °C 12.4 °C 1015.8 hPa WSW 13.7 km/h 22.2 km/h 40% 0.0 mm CLR
11:40 27.3 °C 12.5 °C 1015.8 hPa WSW 13.7 km/h 14.8 km/h 40% 0.0 mm CLR
11:45 27.3 °C 12.9 °C 1015.8 hPa WSW 13.7 km/h 18.5 km/h 41% 0.0 mm CLR
11:50 27.6 °C 12.8 °C 1015.8 hPa SW 12.2 km/h 27.8 km/h 40% 0.0 mm CLR
11:55 27.6 °C 12.8 °C 1015.8 hPa West 12.2 km/h 22.2 km/h 40% 0.0 mm CLR
12:00 27.7 °C 12.9 °C 1015.8 hPa West 12.9 km/h 24.1 km/h 40% 0.0 mm CLR
12:05 28.2 °C 12.9 °C 1015.6 hPa West 13.7 km/h 18.5 km/h 39% 0.0 mm CLR
12:10 28.2 °C 12.9 °C 1015.6 hPa WSW 10.3 km/h 18.5 km/h 39% 0.0 mm CLR
12:15 28.3 °C 12.6 °C 1015.6 hPa SW 10.3 km/h 16.7 km/h 38% 0.0 mm CLR
12:20 28.3 °C 12.6 °C 1015.5 hPa SW 12.2 km/h 17.2 km/h 38% 0.0 mm CLR
12:25 28.3 °C 12.2 °C 1015.5 hPa WSW 12.2 km/h 20.4 km/h 37% 0.0 mm CLR
12:30 28.3 °C 12.2 °C 1015.5 hPa WSW 12.2 km/h 20.4 km/h 37% 0.0 mm CLR
12:35 28.5 °C 12.4 °C 1015.3 hPa WSW 12.2 km/h 18.5 km/h 37% 0.0 mm CLR
12:40 28.7 °C 12.6 °C 1015.3 hPa West 11.1 km/h 13.0 km/h 37% 0.0 mm CLR
12:45 29.1 °C 12.5 °C 1015.3 hPa WSW 11.1 km/h 12.2 km/h 36% 0.0 mm CLR
12:50 29.1 °C 12.1 °C 1015.1 hPa WSW 7.6 km/h 18.5 km/h 35% 0.0 mm CLR
12:55 29.1 °C 11.6 °C 1015.1 hPa WNW 7.6 km/h 22.2 km/h 34% 0.0 mm CLR
13:00 29.3 °C 10.9 °C 1015.1 hPa West 11.3 km/h 24.1 km/h 32% 0.0 mm CLR
13:05 29.3 °C 11.3 °C 1014.9 hPa WNW 11.1 km/h 10.0 km/h 33% 0.0 mm CLR
13:10 29.5 °C 11.1 °C 1014.9 hPa West 9.5 km/h 16.4 km/h 32% 0.0 mm CLR
13:15 29.6 °C 11.2 °C 1014.9 hPa West 9.5 km/h 13.0 km/h 32% 0.0 mm CLR
13:20 29.9 °C 10.9 °C 1014.9 hPa WNW 10.3 km/h 13.0 km/h 31% 0.0 mm CLR
13:25 30.1 °C 11.1 °C 1014.9 hPa WNW 10.3 km/h 20.4 km/h 31% 0.0 mm CLR
13:30 30.1 °C 10.6 °C 1014.9 hPa West 11.1 km/h 13.0 km/h 30% 0.0 mm CLR
13:35 30.1 °C 11.1 °C 1014.8 hPa West 11.1 km/h 17.2 km/h 31% 0.0 mm CLR
13:40 30.2 °C 10.7 °C 1014.8 hPa WSW 11.9 km/h 16.7 km/h 30% 0.0 mm CLR
13:45 30.2 °C 10.7 °C 1014.8 hPa West 11.9 km/h 18.5 km/h 30% 0.0 mm CLR
13:50 30.3 °C 11.3 °C 1014.7 hPa South 11.1 km/h 16.7 km/h 31% 0.0 mm CLR
13:55 30.4 °C 10.9 °C 1014.7 hPa WSW 11.1 km/h 13.0 km/h 30% 0.0 mm CLR
14:00 30.4 °C 10.4 °C 1014.7 hPa West 8.0 km/h 14.5 km/h 29% 0.0 mm CLR
14:05 30.8 °C 10.2 °C 1014.7 hPa NNE 8.4 km/h 13.0 km/h 28% 0.0 mm CLR
14:10 31.0 °C 10.3 °C 1014.7 hPa NW 6.9 km/h 16.7 km/h 28% 0.0 mm CLR
14:15 31.1 °C 10.9 °C 1014.7 hPa WNW 6.9 km/h 22.2 km/h 29% 0.0 mm CLR
14:20 31.0 °C 10.9 °C 1014.6 hPa SW 8.7 km/h 11.1 km/h 29% 0.0 mm CLR
14:25 31.2 °C 10.5 °C 1014.6 hPa SW 8.7 km/h 14.8 km/h 28% 0.0 mm CLR
14:30 31.1 °C 10.4 °C 1014.6 hPa SW 9.5 km/h 18.5 km/h 28% 0.0 mm CLR
14:35 31.2 °C 10.5 °C 1014.6 hPa WNW 9.5 km/h 11.1 km/h 28% 0.0 mm CLR
14:40 31.3 °C 10.6 °C 1014.6 hPa SW 8.7 km/h 20.4 km/h 28% 0.0 mm CLR
14:45 31.3 °C 10.6 °C 1014.6 hPa WNW 8.7 km/h 13.0 km/h 28% 0.0 mm CLR
14:50 31.5 °C 10.2 °C 1014.6 hPa WSW 11.1 km/h 14.8 km/h 27% 0.0 mm CLR
14:55 31.6 °C 10.3 °C 1014.6 hPa SSE 11.1 km/h 9.3 km/h 27% 0.0 mm CLR
15:00 31.6 °C 10.3 °C 1014.6 hPa SSW 8.0 km/h 19.3 km/h 27% 0.0 mm CLR
15:05 31.6 °C 9.8 °C 1014.4 hPa WSW 8.4 km/h 18.5 km/h 26% 0.0 mm CLR
15:10 31.0 °C 14.2 °C 1014.4 hPa NNE 14.8 km/h 35.2 km/h 36% 0.0 mm CLR
15:15 30.3 °C 14.4 °C 1014.4 hPa NNE 14.8 km/h 33.3 km/h 38% 0.0 mm CLR
15:20 30.3 °C 14.0 °C 1014.5 hPa NE 24.5 km/h 33.3 km/h 37% 0.0 mm CLR
15:25 30.3 °C 14.0 °C 1014.5 hPa NE 24.5 km/h 33.3 km/h 37% 0.0 mm CLR
15:30 30.2 °C 14.3 °C 1014.5 hPa ENE 18.3 km/h 29.6 km/h 38% 0.0 mm CLR
15:35 30.1 °C 14.2 °C 1014.6 hPa ENE 18.3 km/h 27.8 km/h 38% 0.0 mm CLR
15:40 29.9 °C 14.4 °C 1014.6 hPa NE 19.8 km/h 33.3 km/h 39% 0.0 mm CLR
15:45 29.6 °C 14.6 °C 1014.6 hPa ENE 19.8 km/h 42.6 km/h 40% 0.0 mm CLR
15:50 28.8 °C 14.6 °C 1014.8 hPa NNE 25.1 km/h 35.2 km/h 42% 0.0 mm CLR
15:55 28.8 °C 14.6 °C 1014.8 hPa ENE 25.1 km/h 33.3 km/h 42% 0.0 mm CLR
16:00 28.7 °C 14.5 °C 1014.8 hPa NE 22.5 km/h 37.0 km/h 42% 0.0 mm CLR
16:05 28.4 °C 14.2 °C 1014.9 hPa NNW 22.0 km/h 35.2 km/h 42% 0.0 mm CLR
16:10 28.4 °C 14.9 °C 1014.9 hPa North 21.7 km/h 29.6 km/h 44% 0.0 mm CLR
16:15 28.2 °C 15.5 °C 1014.9 hPa NE 21.7 km/h 35.2 km/h 46% 0.0 mm CLR
16:20 27.9 °C 15.2 °C 1015.0 hPa NE 22.0 km/h 33.3 km/h 46% 0.0 mm CLR
16:25 27.9 °C 15.2 °C 1015.0 hPa NE 22.0 km/h 33.3 km/h 46% 0.0 mm CLR
16:30 27.8 °C 15.4 °C 1015.0 hPa NNE 20.9 km/h 33.3 km/h 47% 0.0 mm CLR
16:35 27.2 °C 15.6 °C 1015.2 hPa East 20.9 km/h 37.0 km/h 49% 0.0 mm CLR
16:40 26.8 °C 15.5 °C 1015.2 hPa ESE 24.5 km/h 38.9 km/h 50% 0.0 mm CLR
16:45 26.6 °C 15.6 °C 1015.2 hPa ENE 24.5 km/h 38.9 km/h 51% 0.0 mm CLR
16:50 26.4 °C 15.4 °C 1015.3 hPa NE 26.2 km/h 37.0 km/h 51% 0.0 mm CLR
16:55 26.1 °C 15.5 °C 1015.3 hPa NE 26.2 km/h 40.7 km/h 52% 0.0 mm CLR
17:00 26.2 °C 15.9 °C 1015.3 hPa NE 27.4 km/h 37.0 km/h 53% 0.0 mm CLR
17:05 26.4 °C 16.1 °C 1015.3 hPa NNE 27.0 km/h 33.3 km/h 53% 0.0 mm CLR
17:10 26.1 °C 16.1 °C 1015.3 hPa NNE 23.3 km/h 40.7 km/h 54% 0.0 mm CLR
17:15 26.0 °C 15.9 °C 1015.3 hPa NNE 23.3 km/h 29.6 km/h 54% 0.0 mm CLR
17:20 25.9 °C 15.9 °C 1015.4 hPa NE 23.3 km/h 38.9 km/h 54% 0.0 mm CLR
17:25 25.6 °C 15.6 °C 1015.4 hPa NNE 23.3 km/h 38.9 km/h 54% 0.0 mm CLR
17:30 25.4 °C 15.7 °C 1015.4 hPa North 25.6 km/h 37.0 km/h 55% 0.0 mm CLR
17:35 25.3 °C 15.6 °C 1015.7 hPa NE 25.6 km/h 38.9 km/h 55% 0.0 mm CLR
17:40 25.4 °C 15.7 °C 1015.7 hPa NNE 25.1 km/h 24.1 km/h 55% 0.0 mm CLR
17:45 25.3 °C 15.3 °C 1015.7 hPa NE 25.1 km/h 31.5 km/h 54% 0.0 mm CLR
17:50 25.1 °C 15.1 °C 1016.0 hPa NE 23.3 km/h 31.5 km/h 54% 0.0 mm CLR
17:55 25.0 °C 15.1 °C 1016.0 hPa East 23.3 km/h 33.3 km/h 54% 0.0 mm CLR
18:00 25.1 °C 15.1 °C 1016.0 hPa ENE 20.9 km/h 35.4 km/h 54% 0.0 mm CLR
18:05 25.1 °C 14.8 °C 1016.1 hPa NE 19.8 km/h 37.0 km/h 53% 0.0 mm CLR
18:10 25.0 °C 14.8 °C 1016.1 hPa NE 18.3 km/h 29.6 km/h 53% 0.0 mm CLR
18:15 24.9 °C 14.9 °C 1016.1 hPa ESE 18.3 km/h 27.8 km/h 54% 0.0 mm CLR
18:20 24.8 °C 14.6 °C 1016.3 hPa NE 18.3 km/h 31.5 km/h 53% 0.0 mm CLR
18:25 24.8 °C 14.6 °C 1016.3 hPa NNE 18.3 km/h 29.6 km/h 53% 0.0 mm CLR
18:30 24.6 °C 14.4 °C 1016.3 hPa NE 20.9 km/h 22.5 km/h 53% 0.0 mm CLR
18:35 24.7 °C 14.5 °C 1016.6 hPa East 20.9 km/h 27.8 km/h 53% 0.0 mm CLR
18:40 24.7 °C 14.2 °C 1016.6 hPa NNW 15.6 km/h 24.1 km/h 52% 0.0 mm CLR
18:45 24.6 °C 14.1 °C 1016.6 hPa East 15.6 km/h 29.1 km/h 52% 0.0 mm CLR
18:50 24.3 °C 13.8 °C 1016.8 hPa ENE 17.2 km/h 27.8 km/h 52% 0.0 mm CLR
18:55 24.2 °C 13.4 °C 1016.8 hPa NE 17.2 km/h 28.6 km/h 51% 0.0 mm CLR
19:00 24.2 °C 13.7 °C 1016.8 hPa ENE 14.5 km/h 29.0 km/h 52% 0.0 mm CLR
19:05 24.2 °C 13.4 °C 1016.8 hPa ESE 15.6 km/h 24.1 km/h 51% 0.0 mm CLR
19:10 24.2 °C 13.1 °C 1016.8 hPa NNE 14.8 km/h 18.5 km/h 50% 0.0 mm CLR
19:15 24.1 °C 13.0 °C 1016.8 hPa NE 14.8 km/h 20.4 km/h 50% 0.0 mm CLR
19:20 24.0 °C 12.9 °C 1016.9 hPa North 14.8 km/h 25.9 km/h 50% 0.0 mm CLR
19:25 24.1 °C 13.3 °C 1016.9 hPa ENE 14.8 km/h 20.4 km/h 51% 0.0 mm CLR
19:30 24.2 °C 12.8 °C 1016.9 hPa ENE 11.1 km/h 20.9 km/h 49% 0.0 mm CLR
19:35 24.2 °C 12.8 °C 1017.1 hPa NE 11.1 km/h 19.0 km/h 49% 0.0 mm CLR
19:40 24.0 °C 12.6 °C 1017.1 hPa East 13.0 km/h 24.1 km/h 49% 0.0 mm CLR
19:45 23.9 °C 12.8 °C 1017.1 hPa East 13.0 km/h 16.7 km/h 50% 0.0 mm CLR
19:50 23.8 °C 12.4 °C 1017.1 hPa East 13.7 km/h 22.2 km/h 49% 0.0 mm CLR
19:55 23.7 °C 12.7 °C 1017.1 hPa East 13.7 km/h 20.1 km/h 50% 0.0 mm CLR
20:00 23.7 °C 12.6 °C 1017.1 hPa East 14.5 km/h 22.5 km/h 50% 0.0 mm CLR
20:05 23.6 °C 12.6 °C 1017.2 hPa ENE 14.8 km/h 20.4 km/h 50% 0.0 mm CLR
20:10 23.6 °C 12.6 °C 1017.2 hPa NNW 12.2 km/h 11.1 km/h 50% 0.0 mm CLR
20:15 23.6 °C 12.3 °C 1017.2 hPa East 12.2 km/h 22.2 km/h 49% 0.0 mm CLR
20:20 23.5 °C 12.2 °C 1017.2 hPa ESE 9.5 km/h 18.5 km/h 49% 0.0 mm CLR
20:25 23.4 °C 12.4 °C 1017.2 hPa East 9.5 km/h 17.2 km/h 50% 0.0 mm CLR
20:30 23.2 °C 12.2 °C 1017.2 hPa ENE 11.1 km/h 13.0 km/h 50% 0.0 mm CLR
20:35 23.2 °C 12.2 °C 1017.5 hPa East 11.1 km/h 16.7 km/h 50% 0.0 mm CLR
20:40 23.1 °C 12.4 °C 1017.5 hPa NE 9.5 km/h 20.4 km/h 51% 0.0 mm CLR
20:45 23.0 °C 12.3 °C 1017.5 hPa NE 9.5 km/h 13.0 km/h 51% 0.0 mm CLR
20:50 23.1 °C 12.4 °C 1017.7 hPa North 7.6 km/h 9.3 km/h 51% 0.0 mm CLR
20:55 22.9 °C 12.5 °C 1017.7 hPa ENE 7.6 km/h 7.6 km/h 52% 0.0 mm CLR
21:00 22.9 °C 12.5 °C 1017.7 hPa ENE 8.0 km/h 12.9 km/h 52% 0.0 mm CLR
21:05 22.7 °C 12.3 °C 1018.1 hPa ENE 6.9 km/h 13.0 km/h 52% 0.0 mm CLR
21:10 22.6 °C 12.2 °C 1018.1 hPa ENE 8.4 km/h 11.1 km/h 52% 0.0 mm CLR
21:15 22.5 °C 12.2 °C 1018.1 hPa NE 8.4 km/h 11.1 km/h 52% 0.0 mm CLR
21:20 22.5 °C 12.4 °C 1018.3 hPa NNE 6.9 km/h 9.3 km/h 53% 0.0 mm CLR
21:25 22.4 °C 12.3 °C 1018.3 hPa NNE 6.9 km/h 11.1 km/h 53% 0.0 mm CLR
21:30 22.3 °C 12.6 °C 1018.3 hPa East 5.8 km/h 11.1 km/h 54% 0.0 mm CLR
21:35 22.3 °C 12.6 °C 1018.6 hPa ENE 5.8 km/h 8.7 km/h 54% 0.0 mm CLR
21:40 22.2 °C 12.4 °C 1018.6 hPa NE 6.9 km/h 7.4 km/h 54% 0.0 mm CLR
21:45 22.2 °C 12.4 °C 1018.6 hPa NE 6.9 km/h 9.3 km/h 54% 0.0 mm CLR
21:50 22.1 °C 12.3 °C 1018.8 hPa NE 4.7 km/h 9.3 km/h 54% 0.0 mm CLR
21:55 22.0 °C 12.3 °C 1018.8 hPa NNW 4.7 km/h 9.3 km/h 54% 0.0 mm CLR
22:00 21.9 °C 12.4 °C 1018.8 hPa ENE 8.0 km/h 12.9 km/h 55% 0.0 mm CLR
22:05 21.8 °C 12.3 °C 1019.0 hPa East 6.4 km/h 11.1 km/h 55% 0.0 mm CLR
22:10 21.7 °C 12.3 °C 1019.0 hPa ENE 6.4 km/h 7.4 km/h 55% 0.0 mm CLR
22:15 21.7 °C 12.3 °C 1019.0 hPa North 6.4 km/h 7.4 km/h 55% 0.0 mm CLR
22:20 21.7 °C 12.3 °C 1019.3 hPa NNE 5.0 km/h 9.3 km/h 55% 0.0 mm CLR
22:25 21.6 °C 12.4 °C 1019.3 hPa NE 5.0 km/h 9.3 km/h 56% 0.0 mm CLR
22:30 21.6 °C 12.4 °C 1019.3 hPa NNE 6.4 km/h 11.1 km/h 56% 0.0 mm CLR
22:35 21.4 °C 12.3 °C 1019.6 hPa NNE 6.4 km/h 9.3 km/h 56% 0.0 mm CLR
22:40 21.3 °C 12.4 °C 1019.6 hPa NE 7.6 km/h 11.1 km/h 57% 0.0 mm CLR
22:45 21.1 °C 12.2 °C 1019.6 hPa NE 7.6 km/h 7.6 km/h 57% 0.0 mm CLR
22:50 21.1 °C 12.5 °C 1019.7 hPa NE 6.9 km/h 7.4 km/h 58% 0.0 mm CLR
22:55 21.0 °C 12.4 °C 1019.7 hPa NE 6.9 km/h 11.1 km/h 58% 0.0 mm CLR
23:00 21.0 °C 12.4 °C 1019.7 hPa NE 8.0 km/h 9.7 km/h 58% 0.0 mm CLR
23:05 21.0 °C 12.7 °C 1020.0 hPa ENE 6.4 km/h 6.4 km/h 59% 0.0 mm CLR
23:10 20.9 °C 12.6 °C 1020.0 hPa NE 4.7 km/h 7.4 km/h 59% 0.0 mm CLR
23:15 21.0 °C 12.7 °C 1020.0 hPa NE 4.7 km/h 3.7 km/h 59% 0.0 mm CLR
23:20 21.0 °C 12.7 °C 1020.1 hPa NE 2.3 km/h   59% 0.0 mm CLR
23:25 21.0 °C 12.7 °C 1020.1 hPa NE 2.3 km/h 3.7 km/h 59% 0.0 mm CLR
23:30 21.1 °C 12.8 °C 1020.1 hPa NNW 2.3 km/h 5.6 km/h 59% 0.0 mm CLR
23:35 21.0 °C 12.7 °C 1020.1 hPa NNW 2.3 km/h 3.7 km/h 59% 0.0 mm CLR
23:40 21.0 °C 12.7 °C 1020.1 hPa NNW 2.9 km/h 3.7 km/h 59% 0.0 mm CLR
23:45 20.9 °C 12.6 °C 1020.1 hPa NNW 2.9 km/h   59% 0.0 mm CLR
23:50 20.9 °C 12.6 °C 1020.1 hPa Calm   8.4 km/h 59% 0.0 mm CLR
23:55 20.8 °C 12.5 °C 1020.1 hPa Calm   5.6 km/h 59% 0.0 mm CLR
Murcia-Puente Tocinos, España
Compliments of Weather Underground - 2.75 mb

La estación de MeteoMurcia.com, publica sus datos en los siguientes proyectos:

Weather Underground PWS IMURCIAP2 Meteoclimatic www.awekas.at

W3Counter
Web Analytics